Time,TemperatureF,DewpointF,PressureIn,WindDirection,WindDirectionDegrees,WindSpeedMPH,WindSpeedGustMPH,Humidity,HourlyPrecipIn,Conditions,Clouds,dailyrainin,SolarRadiationWatts/m^2,SoftwareType,DateUTC
2013-06-25 00:02:00,61.0,58.1,30.03,WSW,253,1.0,3.0,90,0.00,,,0.01,0.0,meteohub,2013-06-25 07:02:00,
2013-06-25 00:07:00,61.0,58.1,30.04,WSW,252,2.0,3.0,90,0.00,,,0.01,0.0,meteohub,2013-06-25 07:07:00,
2013-06-25 00:12:00,61.0,58.1,30.04,WSW,253,0.0,3.0,90,0.00,,,0.01,0.0,meteohub,2013-06-25 07:12:00,
2013-06-25 00:17:00,61.0,58.1,30.04,WSW,256,1.0,3.0,90,0.00,,,0.01,0.0,meteohub,2013-06-25 07:17:00,
2013-06-25 00:22:00,61.2,58.3,30.04,SW,236,1.0,4.0,90,0.00,,,0.01,0.0,meteohub,2013-06-25 07:22:00,
2013-06-25 00:27:00,61.0,58.1,30.04,WSW,240,2.0,4.0,90,0.00,,,0.01,0.0,meteohub,2013-06-25 07:27:00,
2013-06-25 00:32:00,61.2,58.3,30.04,SW,219,0.0,5.0,90,0.00,,,0.01,0.0,meteohub,2013-06-25 07:32:00,
2013-06-25 00:37:00,61.2,58.3,30.04,SW,219,0.0,5.0,90,0.00,,,0.01,0.0,meteohub,2013-06-25 07:37:00,
2013-06-25 00:42:00,61.2,58.3,30.04,SW,227,1.0,3.0,90,0.00,,,0.01,0.0,meteohub,2013-06-25 07:42:00,
2013-06-25 00:47:00,61.2,58.3,30.04,SW,233,1.0,3.0,90,0.00,,,0.01,0.0,meteohub,2013-06-25 07:47:00,
2013-06-25 00:52:00,61.2,58.3,30.04,SW,233,0.0,3.0,90,0.00,,,0.01,0.0,meteohub,2013-06-25 07:52:00,
2013-06-25 00:57:00,61.2,58.3,30.04,SW,233,0.0,3.0,90,0.00,,,0.01,0.0,meteohub,2013-06-25 07:57:00,
2013-06-25 01:02:00,61.3,58.5,30.03,West,267,0.0,3.0,90,0.00,,,0.01,0.0,meteohub,2013-06-25 08:02:00,
2013-06-25 01:08:00,61.3,58.5,30.03,West,267,0.0,2.0,90,0.00,,,0.01,0.0,meteohub,2013-06-25 08:08:00,
2013-06-25 01:24:00,61.3,58.1,30.03,West,274,0.0,4.0,89,0.00,,,0.01,0.0,meteohub,2013-06-25 08:24:00,
2013-06-25 01:30:00,61.3,58.1,30.03,NE,42,2.0,4.0,89,0.00,,,0.01,0.0,meteohub,2013-06-25 08:30:00,
2013-06-25 01:36:00,61.3,57.7,30.03,WNW,294,1.0,4.0,88,0.00,,,0.01,0.0,meteohub,2013-06-25 08:36:00,
2013-06-25 01:38:00,61.5,57.9,30.03,SW,236,0.0,4.0,88,0.00,,,0.01,0.0,meteohub,2013-06-25 08:38:00,
2013-06-25 01:44:00,61.5,57.9,30.03,West,263,2.0,5.0,88,0.00,,,0.01,0.0,meteohub,2013-06-25 08:44:00,
2013-06-25 01:49:00,61.5,57.9,30.03,NW,309,0.0,5.0,88,0.00,,,0.01,0.0,meteohub,2013-06-25 08:49:00,
2013-06-25 01:56:00,61.5,57.6,30.03,West,281,2.0,5.0,87,0.00,,,0.01,0.0,meteohub,2013-06-25 08:56:00,
2013-06-25 02:01:00,61.5,57.6,30.03,NW,318,1.0,5.0,87,0.00,,,0.01,0.0,meteohub,2013-06-25 09:01:00,
2013-06-25 02:07:00,61.5,57.6,30.03,SSW,201,0.0,4.0,87,0.00,,,0.01,0.0,meteohub,2013-06-25 09:07:00,
2013-06-25 02:12:00,61.5,57.6,30.03,SW,220,0.0,4.0,87,0.00,,,0.01,0.0,meteohub,2013-06-25 09:12:00,
2013-06-25 02:17:00,61.5,57.6,30.03,West,278,2.0,3.0,87,0.00,,,0.01,0.0,meteohub,2013-06-25 09:17:00,
2013-06-25 02:22:00,61.5,57.6,30.03,SSE,148,0.0,3.0,87,0.00,,,0.01,0.0,meteohub,2013-06-25 09:22:00,
2013-06-25 02:27:00,61.5,57.6,30.03,SSE,149,0.0,3.0,87,0.00,,,0.01,0.0,meteohub,2013-06-25 09:27:00,
2013-06-25 02:33:00,61.5,57.6,30.03,SW,221,0.0,3.0,87,0.00,,,0.01,0.0,meteohub,2013-06-25 09:33:00,
2013-06-25 02:38:00,61.3,57.4,30.03,South,171,2.0,2.0,87,0.00,,,0.01,0.0,meteohub,2013-06-25 09:38:00,
2013-06-25 02:43:00,61.3,57.4,30.03,West,274,0.0,7.0,87,0.00,,,0.01,0.0,meteohub,2013-06-25 09:43:00,
2013-06-25 02:48:00,61.3,57.4,30.03,WNW,286,0.0,7.0,87,0.00,,,0.01,0.0,meteohub,2013-06-25 09:48:00,
2013-06-25 02:54:00,61.2,57.2,30.02,SW,235,0.0,7.0,87,0.00,,,0.01,0.0,meteohub,2013-06-25 09:54:00,
2013-06-25 02:59:00,61.2,57.2,30.02,SW,235,0.0,4.0,87,0.00,,,0.01,0.0,meteohub,2013-06-25 09:59:00,
2013-06-25 03:07:00,61.2,57.2,30.03,WSW,249,2.0,2.0,87,0.00,,,0.01,0.0,meteohub,2013-06-25 10:07:00,
2013-06-25 03:12:00,61.2,57.2,30.02,WSW,248,1.0,4.0,87,0.00,,,0.01,0.0,meteohub,2013-06-25 10:12:00,
2013-06-25 03:18:00,61.2,57.2,30.02,West,279,0.0,4.0,87,0.00,,,0.01,0.0,meteohub,2013-06-25 10:18:00,
2013-06-25 03:23:00,61.2,57.0,30.02,West,269,0.0,4.0,86,0.00,,,0.01,0.0,meteohub,2013-06-25 10:23:00,
2013-06-25 03:28:00,61.2,57.0,30.02,WSW,240,1.0,4.0,86,0.00,,,0.01,0.0,meteohub,2013-06-25 10:28:00,
2013-06-25 03:33:00,61.3,57.2,30.02,WSW,241,0.0,4.0,86,0.00,,,0.01,0.0,meteohub,2013-06-25 10:33:00,
2013-06-25 03:38:00,61.3,57.2,30.02,WSW,241,0.0,3.0,86,0.00,,,0.01,0.0,meteohub,2013-06-25 10:38:00,
2013-06-25 03:44:00,61.3,57.2,30.02,WSW,241,1.0,3.0,86,0.00,,,0.01,0.0,meteohub,2013-06-25 10:44:00,
2013-06-25 03:49:00,61.3,57.2,30.02,WSW,241,0.0,2.0,86,0.00,,,0.01,0.0,meteohub,2013-06-25 10:49:00,
2013-06-25 03:54:00,61.3,57.2,30.02,South,178,0.0,2.0,86,0.00,,,0.01,0.0,meteohub,2013-06-25 10:54:00,
2013-06-25 04:02:00,61.3,57.4,30.02,SW,215,1.0,2.0,87,0.00,,,0.01,0.0,meteohub,2013-06-25 11:02:00,
2013-06-25 04:07:00,61.3,57.4,30.02,WNW,299,0.0,7.0,87,0.00,,,0.01,0.0,meteohub,2013-06-25 11:07:00,
2013-06-25 04:12:00,61.5,57.6,30.01,NNW,346,2.0,7.0,87,0.00,,,0.01,0.0,meteohub,2013-06-25 11:12:00,
2013-06-25 04:17:00,61.5,57.6,30.02,South,175,0.0,7.0,87,0.00,,,0.01,0.0,meteohub,2013-06-25 11:17:00,
2013-06-25 04:23:00,61.5,57.6,30.02,North,355,0.0,4.0,87,0.00,,,0.01,0.0,meteohub,2013-06-25 11:23:00,
2013-06-25 04:28:00,61.5,57.6,30.02,NW,317,1.0,4.0,87,0.00,,,0.01,0.0,meteohub,2013-06-25 11:28:00,
2013-06-25 04:33:00,61.5,57.4,30.02,NW,312,0.0,4.0,86,0.00,,,0.01,0.0,meteohub,2013-06-25 11:33:00,
2013-06-25 04:38:00,61.5,57.4,30.02,NW,312,0.0,2.0,86,0.00,,,0.01,0.0,meteohub,2013-06-25 11:38:00,
2013-06-25 04:44:00,61.5,57.4,30.02,West,263,0.0,2.0,86,0.00,,,0.01,0.0,meteohub,2013-06-25 11:44:00,
2013-06-25 04:49:00,61.7,57.4,30.01,NNW,333,3.0,3.0,86,0.00,,,0.01,0.0,meteohub,2013-06-25 11:49:00,
2013-06-25 04:54:00,61.7,57.4,30.01,West,267,1.0,3.0,86,0.00,,,0.01,0.0,meteohub,2013-06-25 11:54:00,
2013-06-25 05:00:00,61.9,57.6,30.01,NW,317,2.0,8.0,86,0.00,,,0.01,0.0,meteohub,2013-06-25 12:00:00,
2013-06-25 05:05:00,61.9,57.6,30.01,West,269,2.0,8.0,86,0.00,,,0.01,0.0,meteohub,2013-06-25 12:05:00,
2013-06-25 05:10:00,61.9,57.6,30.01,SSE,158,0.0,8.0,86,0.00,,,0.01,0.0,meteohub,2013-06-25 12:10:00,
2013-06-25 05:15:00,61.9,57.6,30.02,WSW,241,1.0,5.0,86,0.00,,,0.01,0.0,meteohub,2013-06-25 12:15:00,
2013-06-25 05:20:00,61.9,57.6,30.02,WNW,289,0.0,5.0,86,0.00,,,0.01,0.0,meteohub,2013-06-25 12:20:00,
2013-06-25 05:26:00,61.9,57.6,30.02,WNW,289,1.0,5.0,86,0.00,,,0.01,0.0,meteohub,2013-06-25 12:26:00,
2013-06-25 05:31:00,61.7,57.4,30.02,West,280,0.0,5.0,86,0.00,,,0.01,0.0,meteohub,2013-06-25 12:31:00,
2013-06-25 05:36:00,61.7,57.4,30.02,West,269,4.0,6.0,86,0.00,,,0.01,0.0,meteohub,2013-06-25 12:36:00,
2013-06-25 05:41:00,61.5,57.4,30.03,WSW,249,0.0,6.0,86,0.00,,,0.01,0.0,meteohub,2013-06-25 12:41:00,
2013-06-25 05:47:00,61.5,57.6,30.03,WNW,286,3.0,7.0,87,0.00,,,0.01,0.0,meteohub,2013-06-25 12:47:00,
2013-06-25 05:52:00,61.3,57.4,30.03,WNW,290,3.0,7.0,87,0.00,,,0.01,0.0,meteohub,2013-06-25 12:52:00,
2013-06-25 05:58:00,61.2,57.6,30.03,SW,232,0.0,6.0,88,0.00,,,0.01,0.0,meteohub,2013-06-25 12:58:00,
2013-06-25 06:03:00,61.0,57.4,30.03,West,268,3.0,5.0,88,0.00,,,0.01,5.0,meteohub,2013-06-25 13:03:00,
2013-06-25 06:08:00,61.0,57.7,30.03,West,280,1.0,5.0,89,0.00,,,0.01,5.0,meteohub,2013-06-25 13:08:00,
2013-06-25 06:14:00,61.0,57.7,30.03,West,269,0.0,5.0,89,0.00,,,0.01,7.0,meteohub,2013-06-25 13:14:00,
2013-06-25 06:19:00,60.8,57.6,30.03,WSW,246,1.0,4.0,89,0.00,,,0.01,9.0,meteohub,2013-06-25 13:19:00,
2013-06-25 06:24:00,60.8,57.9,30.03,WSW,254,4.0,5.0,90,0.01,,,0.02,11.0,meteohub,2013-06-25 13:24:00,
2013-06-25 06:29:00,60.8,57.9,30.04,NNW,329,2.0,5.0,90,0.01,,,0.02,11.0,meteohub,2013-06-25 13:29:00,
2013-06-25 06:34:00,60.6,57.7,30.03,NW,323,1.0,5.0,90,0.01,,,0.02,11.0,meteohub,2013-06-25 13:34:00,
2013-06-25 06:39:00,60.6,57.9,30.04,WNW,290,1.0,4.0,91,0.01,,,0.02,18.0,meteohub,2013-06-25 13:39:00,
2013-06-25 06:44:00,60.8,58.1,30.04,West,270,0.0,5.0,91,0.01,,,0.02,35.0,meteohub,2013-06-25 13:44:00,
2013-06-25 06:50:00,61.0,58.3,30.04,NE,51,1.0,5.0,91,0.01,,,0.02,46.0,meteohub,2013-06-25 13:50:00,
2013-06-25 06:55:00,61.0,58.3,30.04,NNW,331,0.0,7.0,91,0.01,,,0.02,25.0,meteohub,2013-06-25 13:55:00,
2013-06-25 07:00:00,61.2,58.5,30.04,West,273,0.0,7.0,91,0.01,,,0.02,21.0,meteohub,2013-06-25 14:00:00,
2013-06-25 07:05:00,61.2,58.5,30.04,West,271,0.0,7.0,91,0.01,,,0.02,16.0,meteohub,2013-06-25 14:05:00,
2013-06-25 07:10:00,61.2,58.5,30.04,West,261,0.0,6.0,91,0.01,,,0.03,18.0,meteohub,2013-06-25 14:10:00,
2013-06-25 07:15:00,61.2,58.5,30.04,West,261,0.0,3.0,91,0.01,,,0.03,21.0,meteohub,2013-06-25 14:15:00,
2013-06-25 07:20:00,61.3,58.6,30.05,West,261,0.0,3.0,91,0.01,,,0.03,40.0,meteohub,2013-06-25 14:20:00,
2013-06-25 07:26:00,61.3,58.6,30.05,SE,137,1.0,5.0,91,0.01,,,0.03,46.0,meteohub,2013-06-25 14:26:00,
2013-06-25 07:31:00,61.5,58.8,30.05,WNW,286,0.0,5.0,91,0.01,,,0.03,91.0,meteohub,2013-06-25 14:31:00,
2013-06-25 07:36:00,61.9,59.2,30.05,West,263,2.0,5.0,91,0.01,,,0.03,90.0,meteohub,2013-06-25 14:36:00,
2013-06-25 07:41:00,62.2,59.5,30.04,WSW,248,0.0,5.0,91,0.01,,,0.03,90.0,meteohub,2013-06-25 14:41:00,
2013-06-25 07:46:00,62.4,59.4,30.04,North,355,3.0,6.0,90,0.01,,,0.03,97.0,meteohub,2013-06-25 14:46:00,
2013-06-25 07:52:00,63.0,59.7,30.04,WSW,257,1.0,7.0,89,0.01,,,0.03,95.0,meteohub,2013-06-25 14:52:00,
2013-06-25 07:57:00,63.1,59.9,30.04,WSW,255,0.0,7.0,89,0.01,,,0.03,42.0,meteohub,2013-06-25 14:57:00,
2013-06-25 08:02:00,63.3,59.7,30.04,WSW,241,2.0,7.0,88,0.01,,,0.03,90.0,meteohub,2013-06-25 15:02:00,
2013-06-25 08:07:00,63.7,60.1,30.05,WSW,241,2.0,5.0,88,0.01,,,0.03,95.0,meteohub,2013-06-25 15:07:00,
2013-06-25 08:12:00,64.0,60.1,30.05,WSW,244,5.0,8.0,87,0.00,,,0.03,37.0,meteohub,2013-06-25 15:12:00,
2013-06-25 08:17:00,64.0,59.7,30.05,SW,223,2.0,8.0,86,0.00,,,0.03,33.0,meteohub,2013-06-25 15:17:00,
2013-06-25 08:22:00,63.9,59.5,30.05,WNW,292,3.0,8.0,86,0.00,,,0.03,46.0,meteohub,2013-06-25 15:22:00,
2013-06-25 08:27:00,63.9,59.9,30.05,WSW,242,8.0,8.0,87,0.00,,,0.03,49.0,meteohub,2013-06-25 15:27:00,
2013-06-25 08:32:00,64.0,60.1,30.05,WNW,294,6.0,8.0,87,0.00,,,0.03,40.0,meteohub,2013-06-25 15:32:00,
2013-06-25 08:38:00,64.0,60.1,30.05,WSW,242,3.0,8.0,87,0.00,,,0.03,54.0,meteohub,2013-06-25 15:38:00,
2013-06-25 08:43:00,64.0,60.1,30.05,WSW,249,1.0,8.0,87,0.00,,,0.03,100.0,meteohub,2013-06-25 15:43:00,
2013-06-25 08:48:00,64.2,60.3,30.05,West,265,2.0,7.0,87,0.00,,,0.03,120.0,meteohub,2013-06-25 15:48:00,
2013-06-25 08:53:00,64.4,60.8,30.05,WNW,296,3.0,11.0,88,0.00,,,0.03,79.0,meteohub,2013-06-25 15:53:00,
2013-06-25 08:58:00,64.4,60.8,30.05,West,266,3.0,11.0,88,0.00,,,0.03,104.0,meteohub,2013-06-25 15:58:00,
2013-06-25 09:03:00,64.6,61.0,30.06,West,277,1.0,11.0,88,0.00,,,0.03,130.0,meteohub,2013-06-25 16:03:00,
2013-06-25 09:08:00,64.8,61.2,30.05,WNW,302,0.0,6.0,88,0.00,,,0.03,107.0,meteohub,2013-06-25 16:08:00,
2013-06-25 09:13:00,64.9,61.0,30.06,WNW,290,4.0,6.0,87,0.00,,,0.03,127.0,meteohub,2013-06-25 16:13:00,
2013-06-25 09:18:00,65.3,61.0,30.06,SSW,204,4.0,8.0,86,0.00,,,0.03,123.0,meteohub,2013-06-25 16:18:00,
2013-06-25 09:24:00,65.7,61.3,30.06,West,271,3.0,8.0,86,0.00,,,0.03,156.0,meteohub,2013-06-25 16:24:00,
2013-06-25 09:29:00,66.4,61.7,30.06,WNW,294,1.0,10.0,85,0.00,,,0.03,232.0,meteohub,2013-06-25 16:29:00,
2013-06-25 09:34:00,66.9,61.9,30.06,West,271,2.0,11.0,84,0.00,,,0.03,209.0,meteohub,2013-06-25 16:34:00,
2013-06-25 09:39:00,67.3,61.5,30.07,SW,223,7.0,11.0,82,0.00,,,0.03,207.0,meteohub,2013-06-25 16:39:00,
2013-06-25 09:44:00,67.1,61.3,30.07,SW,227,1.0,11.0,82,0.00,,,0.03,178.0,meteohub,2013-06-25 16:44:00,
2013-06-25 09:49:00,66.9,61.5,30.07,West,267,3.0,11.0,83,0.00,,,0.03,135.0,meteohub,2013-06-25 16:49:00,
2013-06-25 09:54:00,66.7,61.3,30.07,WSW,242,4.0,10.0,83,0.00,,,0.03,236.0,meteohub,2013-06-25 16:54:00,
2013-06-25 10:00:00,67.3,61.5,30.07,West,275,5.0,9.0,82,0.00,,,0.03,276.0,meteohub,2013-06-25 17:00:00,
2013-06-25 10:05:00,67.5,61.7,30.07,West,267,2.0,10.0,82,0.00,,,0.03,255.0,meteohub,2013-06-25 17:05:00,
2013-06-25 10:10:00,67.5,61.7,30.07,West,273,3.0,12.0,82,0.00,,,0.03,207.0,meteohub,2013-06-25 17:10:00,
2013-06-25 10:15:00,67.6,62.2,30.07,WSW,244,9.0,12.0,83,0.00,,,0.03,221.0,meteohub,2013-06-25 17:15:00,
2013-06-25 10:20:00,67.8,62.8,30.07,NW,307,4.0,10.0,84,0.00,,,0.03,404.0,meteohub,2013-06-25 17:20:00,
2013-06-25 10:25:00,68.2,63.1,30.07,West,267,5.0,9.0,84,0.00,,,0.03,345.0,meteohub,2013-06-25 17:25:00,
2013-06-25 10:31:00,68.5,63.1,30.08,SSW,211,0.0,8.0,83,0.00,,,0.03,598.0,meteohub,2013-06-25 17:31:00,
2013-06-25 10:36:00,69.4,63.3,30.08,SW,220,5.0,9.0,81,0.00,,,0.03,606.0,meteohub,2013-06-25 17:36:00,
2013-06-25 10:41:00,70.3,63.5,30.08,West,272,6.0,9.0,79,0.00,,,0.03,603.0,meteohub,2013-06-25 17:41:00,
2013-06-25 10:46:00,70.3,62.4,30.08,WSW,246,5.0,10.0,76,0.00,,,0.03,271.0,meteohub,2013-06-25 17:46:00,
2013-06-25 10:51:00,69.8,62.2,30.08,WSW,243,2.0,10.0,77,0.00,,,0.03,309.0,meteohub,2013-06-25 17:51:00,
2013-06-25 10:56:00,69.6,62.4,30.08,West,270,5.0,10.0,78,0.00,,,0.03,343.0,meteohub,2013-06-25 17:56:00,
2013-06-25 11:01:00,70.0,62.8,30.08,WSW,251,6.0,10.0,78,0.00,,,0.03,236.0,meteohub,2013-06-25 18:01:00,
2013-06-25 11:07:00,69.8,62.2,30.08,WSW,238,5.0,9.0,77,0.00,,,0.03,406.0,meteohub,2013-06-25 18:07:00,
2013-06-25 11:12:00,70.0,62.8,30.08,WSW,253,4.0,9.0,78,0.00,,,0.03,413.0,meteohub,2013-06-25 18:12:00,
2013-06-25 11:17:00,70.5,63.0,30.09,West,279,4.0,10.0,77,0.00,,,0.03,504.0,meteohub,2013-06-25 18:17:00,
2013-06-25 11:22:00,72.0,64.0,30.09,SW,231,6.0,10.0,76,0.00,,,0.03,557.0,meteohub,2013-06-25 18:22:00,
2013-06-25 11:27:00,72.3,63.5,30.09,WNW,294,5.0,11.0,74,0.00,,,0.03,352.0,meteohub,2013-06-25 18:27:00,
2013-06-25 11:32:00,71.4,62.8,30.09,West,260,5.0,12.0,74,0.00,,,0.03,237.0,meteohub,2013-06-25 18:32:00,
2013-06-25 11:37:00,70.9,62.6,30.09,WSW,251,6.0,16.0,75,0.00,,,0.03,336.0,meteohub,2013-06-25 18:37:00,
2013-06-25 11:42:00,70.9,63.0,30.09,NNW,328,7.0,16.0,76,0.00,,,0.03,357.0,meteohub,2013-06-25 18:42:00,
2013-06-25 11:47:00,71.2,63.0,30.09,West,260,6.0,14.0,75,0.00,,,0.03,362.0,meteohub,2013-06-25 18:47:00,
2013-06-25 11:52:00,71.4,63.1,30.09,SW,227,4.0,14.0,75,0.00,,,0.03,483.0,meteohub,2013-06-25 18:52:00,
2013-06-25 11:57:00,72.0,63.1,30.10,WSW,254,5.0,14.0,74,0.00,,,0.03,322.0,meteohub,2013-06-25 18:57:00,
2013-06-25 12:02:00,71.8,62.6,30.10,West,275,5.0,14.0,73,0.00,,,0.03,255.0,meteohub,2013-06-25 19:02:00,
2013-06-25 12:07:00,71.1,62.8,30.10,SW,224,6.0,14.0,75,0.00,,,0.03,279.0,meteohub,2013-06-25 19:07:00,
2013-06-25 12:12:00,70.9,62.6,30.09,WSW,245,6.0,14.0,75,0.00,,,0.03,320.0,meteohub,2013-06-25 19:12:00,
2013-06-25 12:17:00,70.5,62.6,30.10,West,264,6.0,13.0,76,0.00,,,0.03,244.0,meteohub,2013-06-25 19:17:00,
2013-06-25 12:22:00,70.3,62.4,30.10,WSW,246,6.0,13.0,76,0.00,,,0.03,218.0,meteohub,2013-06-25 19:22:00,
2013-06-25 12:27:00,70.0,62.8,30.10,NW,304,5.0,13.0,78,0.00,,,0.03,250.0,meteohub,2013-06-25 19:27:00,
2013-06-25 12:32:00,69.3,63.1,30.10,WSW,254,5.0,13.0,81,0.00,,,0.03,292.0,meteohub,2013-06-25 19:32:00,
2013-06-25 12:37:00,68.7,63.3,30.10,SW,221,5.0,11.0,83,0.00,,,0.03,278.0,meteohub,2013-06-25 19:37:00,
2013-06-25 12:43:00,68.4,64.0,30.10,West,263,5.0,11.0,86,0.00,,,0.03,394.0,meteohub,2013-06-25 19:43:00,
2013-06-25 12:48:00,68.4,64.4,30.10,SW,226,7.0,11.0,87,0.00,,,0.03,380.0,meteohub,2013-06-25 19:48:00,
2013-06-25 12:53:00,68.4,64.4,30.11,West,265,5.0,10.0,87,0.00,,,0.03,420.0,meteohub,2013-06-25 19:53:00,
2013-06-25 12:58:00,68.4,64.4,30.11,WSW,248,4.0,11.0,87,0.00,,,0.03,360.0,meteohub,2013-06-25 19:58:00,
2013-06-25 13:03:00,68.4,64.6,30.11,West,269,8.0,11.0,88,0.00,,,0.03,496.0,meteohub,2013-06-25 20:03:00,
2013-06-25 13:08:00,68.5,65.1,30.11,WNW,290,6.0,11.0,89,0.00,,,0.03,524.0,meteohub,2013-06-25 20:08:00,
2013-06-25 13:13:00,68.5,64.6,30.11,West,268,6.0,10.0,87,0.00,,,0.03,566.0,meteohub,2013-06-25 20:13:00,
2013-06-25 13:18:00,68.5,64.6,30.11,South,178,6.0,12.0,87,0.00,,,0.03,659.0,meteohub,2013-06-25 20:18:00,
2013-06-25 13:23:00,68.9,64.9,30.11,WSW,254,10.0,12.0,87,0.00,,,0.03,1123.0,meteohub,2013-06-25 20:23:00,
2013-06-25 13:29:00,69.3,64.9,30.11,WSW,254,7.0,12.0,86,0.00,,,0.03,578.0,meteohub,2013-06-25 20:29:00,
2013-06-25 13:34:00,69.6,64.6,30.11,West,259,5.0,13.0,84,0.00,,,0.03,374.0,meteohub,2013-06-25 20:34:00,
2013-06-25 13:39:00,70.5,65.1,30.11,SW,232,13.0,13.0,83,0.00,,,0.03,1209.0,meteohub,2013-06-25 20:39:00,
2013-06-25 13:44:00,70.5,64.4,30.11,West,265,4.0,13.0,81,0.00,,,0.03,355.0,meteohub,2013-06-25 20:44:00,
2013-06-25 13:49:00,70.3,64.2,30.11,SW,229,8.0,15.0,81,0.00,,,0.03,429.0,meteohub,2013-06-25 20:49:00,
2013-06-25 13:54:00,70.5,64.8,30.11,WSW,255,6.0,15.0,82,0.00,,,0.03,626.0,meteohub,2013-06-25 20:54:00,
2013-06-25 13:59:00,70.9,64.4,30.11,WSW,240,7.0,14.0,80,0.00,,,0.03,359.0,meteohub,2013-06-25 20:59:00,
2013-06-25 14:04:00,70.5,63.7,30.11,SW,219,10.0,11.0,79,0.00,,,0.03,461.0,meteohub,2013-06-25 21:04:00,
2013-06-25 14:10:00,70.3,63.5,30.11,WSW,248,12.0,12.0,79,0.00,,,0.03,341.0,meteohub,2013-06-25 21:10:00,
2013-06-25 14:15:00,69.8,63.7,30.11,South,190,6.0,13.0,81,0.00,,,0.03,401.0,meteohub,2013-06-25 21:15:00,
2013-06-25 14:20:00,69.6,63.5,30.11,West,262,7.0,14.0,81,0.00,,,0.03,513.0,meteohub,2013-06-25 21:20:00,
2013-06-25 14:25:00,70.5,64.4,30.11,West,281,7.0,15.0,81,0.00,,,0.03,570.0,meteohub,2013-06-25 21:25:00,
2013-06-25 14:30:00,70.9,63.7,30.11,West,267,6.0,15.0,78,0.00,,,0.03,575.0,meteohub,2013-06-25 21:30:00,
2013-06-25 14:35:00,70.5,63.7,30.11,WNW,286,7.0,16.0,79,0.00,,,0.03,454.0,meteohub,2013-06-25 21:35:00,
2013-06-25 14:41:00,70.9,64.0,30.11,WSW,250,11.0,16.0,79,0.00,,,0.03,1035.0,meteohub,2013-06-25 21:41:00,
2013-06-25 14:46:00,70.5,63.7,30.11,WSW,239,11.0,16.0,79,0.00,,,0.03,329.0,meteohub,2013-06-25 21:46:00,
2013-06-25 14:51:00,71.2,64.4,30.11,West,268,9.0,16.0,79,0.00,,,0.03,640.0,meteohub,2013-06-25 21:51:00,
2013-06-25 14:56:00,72.0,64.4,30.11,West,273,9.0,16.0,77,0.00,,,0.03,415.0,meteohub,2013-06-25 21:56:00,
2013-06-25 15:01:00,71.4,63.9,30.11,WSW,238,9.0,13.0,77,0.00,,,0.03,248.0,meteohub,2013-06-25 22:01:00,
2013-06-25 15:06:00,70.5,63.3,30.11,WSW,242,11.0,15.0,78,0.00,,,0.03,601.0,meteohub,2013-06-25 22:06:00,
2013-06-25 15:11:00,70.2,63.3,30.11,WSW,250,6.0,15.0,79,0.00,,,0.03,601.0,meteohub,2013-06-25 22:11:00,
2013-06-25 15:16:00,70.2,63.3,30.10,WNW,288,5.0,15.0,79,0.00,,,0.03,392.0,meteohub,2013-06-25 22:16:00,
2013-06-25 15:21:00,71.1,63.5,30.10,SW,233,9.0,13.0,77,0.00,,,0.03,691.0,meteohub,2013-06-25 22:21:00,
2013-06-25 15:26:00,71.4,63.9,30.10,WSW,238,6.0,14.0,77,0.00,,,0.03,874.0,meteohub,2013-06-25 22:26:00,
2013-06-25 15:32:00,72.1,64.2,30.10,NW,322,5.0,14.0,76,0.00,,,0.03,830.0,meteohub,2013-06-25 22:32:00,
2013-06-25 15:37:00,72.1,64.2,30.10,West,267,3.0,14.0,76,0.00,,,0.03,831.0,meteohub,2013-06-25 22:37:00,
2013-06-25 15:42:00,72.3,64.4,30.10,WNW,298,4.0,15.0,76,0.00,,,0.03,664.0,meteohub,2013-06-25 22:42:00,
2013-06-25 15:47:00,73.0,64.2,30.10,WSW,248,2.0,15.0,74,0.00,,,0.03,856.0,meteohub,2013-06-25 22:47:00,
2013-06-25 15:52:00,73.4,64.2,30.10,West,277,5.0,13.0,73,0.00,,,0.03,585.0,meteohub,2013-06-25 22:52:00,
2013-06-25 15:57:00,73.6,64.8,30.09,WSW,240,4.0,11.0,74,0.00,,,0.03,1018.0,meteohub,2013-06-25 22:57:00,
2013-06-25 16:02:00,73.8,64.6,30.09,WSW,258,5.0,12.0,73,0.00,,,0.03,914.0,meteohub,2013-06-25 23:02:00,
2013-06-25 16:07:00,74.1,64.6,30.09,SW,216,5.0,12.0,72,0.00,,,0.03,930.0,meteohub,2013-06-25 23:07:00,
2013-06-25 16:12:00,74.3,64.8,30.09,WSW,240,4.0,13.0,72,0.00,,,0.03,288.0,meteohub,2013-06-25 23:12:00,
2013-06-25 16:17:00,74.1,64.9,30.10,WSW,251,4.0,13.0,73,0.00,,,0.03,290.0,meteohub,2013-06-25 23:17:00,
2013-06-25 16:23:00,73.6,64.0,30.10,WSW,238,6.0,13.0,72,0.00,,,0.03,209.0,meteohub,2013-06-25 23:23:00,
2013-06-25 16:28:00,72.5,63.7,30.10,West,279,3.0,10.0,74,0.00,,,0.03,185.0,meteohub,2013-06-25 23:28:00,
2013-06-25 16:33:00,71.8,63.9,30.09,WSW,254,5.0,12.0,76,0.00,,,0.03,163.0,meteohub,2013-06-25 23:33:00,
2013-06-25 16:39:00,71.4,63.9,30.09,WSW,242,2.0,12.0,77,0.00,,,0.03,262.0,meteohub,2013-06-25 23:39:00,
2013-06-25 16:44:00,72.5,64.0,30.09,WNW,290,3.0,12.0,75,0.00,,,0.03,870.0,meteohub,2013-06-25 23:44:00,
2013-06-25 16:49:00,72.7,64.8,30.09,West,279,1.0,10.0,76,0.00,,,0.03,207.0,meteohub,2013-06-25 23:49:00,
2013-06-25 16:54:00,72.9,64.4,30.09,SW,227,4.0,9.0,75,0.00,,,0.03,153.0,meteohub,2013-06-25 23:54:00,
2013-06-25 16:59:00,73.0,64.2,30.09,WSW,240,4.0,9.0,74,0.00,,,0.03,190.0,meteohub,2013-06-25 23:59:00,
2013-06-25 17:05:00,73.0,64.2,30.09,WSW,244,7.0,8.0,74,0.00,,,0.03,207.0,meteohub,2013-06-26 00:05:00,
2013-06-25 17:10:00,73.2,64.0,30.09,SW,219,6.0,9.0,73,0.00,,,0.00,617.0,meteohub,2013-06-26 00:10:00,
2013-06-25 17:15:00,73.6,64.4,30.09,WSW,253,5.0,11.0,73,0.00,,,0.00,148.0,meteohub,2013-06-26 00:15:00,
2013-06-25 17:20:00,73.4,64.2,30.09,WSW,242,5.0,11.0,73,0.00,,,0.00,693.0,meteohub,2013-06-26 00:20:00,
2013-06-25 17:25:00,73.8,64.6,30.09,WSW,240,8.0,11.0,73,0.00,,,0.00,209.0,meteohub,2013-06-26 00:25:00,
2013-06-25 17:30:00,74.1,64.6,30.09,SW,221,8.0,11.0,72,0.00,,,0.00,285.0,meteohub,2013-06-26 00:30:00,
2013-06-25 17:35:00,73.6,64.0,30.09,NW,323,6.0,11.0,72,0.00,,,0.00,156.0,meteohub,2013-06-26 00:35:00,
2013-06-25 17:41:00,72.7,63.9,30.09,WSW,247,9.0,11.0,74,0.00,,,0.00,176.0,meteohub,2013-06-26 00:41:00,
2013-06-25 17:46:00,72.3,63.5,30.09,SW,217,6.0,11.0,74,0.00,,,0.00,141.0,meteohub,2013-06-26 00:46:00,
2013-06-25 17:51:00,72.1,63.9,30.08,WSW,240,5.0,12.0,75,0.00,,,0.00,156.0,meteohub,2013-06-26 00:51:00,
2013-06-25 17:56:00,72.0,63.7,30.08,WSW,252,5.0,12.0,75,0.00,,,0.00,148.0,meteohub,2013-06-26 00:56:00,
2013-06-25 18:02:00,71.6,63.7,30.08,WSW,237,8.0,12.0,76,0.00,,,0.00,373.0,meteohub,2013-06-26 01:02:00,
2013-06-25 18:07:00,72.3,64.4,30.08,WSW,253,7.0,12.0,76,0.00,,,0.00,589.0,meteohub,2013-06-26 01:07:00,
2013-06-25 18:12:00,73.2,64.0,30.08,SW,222,8.0,11.0,73,0.00,,,0.00,281.0,meteohub,2013-06-26 01:12:00,
2013-06-25 18:17:00,72.9,63.7,30.08,NW,314,3.0,11.0,73,0.00,,,0.00,100.0,meteohub,2013-06-26 01:17:00,
2013-06-25 18:22:00,72.0,63.1,30.08,West,277,3.0,12.0,74,0.00,,,0.00,165.0,meteohub,2013-06-26 01:22:00,
2013-06-25 18:27:00,72.0,63.7,30.08,West,259,7.0,12.0,75,0.00,,,0.00,464.0,meteohub,2013-06-26 01:27:00,
2013-06-25 18:32:00,72.0,63.7,30.08,SW,225,10.0,12.0,75,0.00,,,0.00,200.0,meteohub,2013-06-26 01:32:00,
2013-06-25 18:37:00,72.5,63.7,30.08,WSW,248,5.0,10.0,74,0.00,,,0.00,396.0,meteohub,2013-06-26 01:37:00,
2013-06-25 18:42:00,72.7,63.9,30.08,WSW,241,5.0,10.0,74,0.00,,,0.00,376.0,meteohub,2013-06-26 01:42:00,
2013-06-25 18:47:00,72.5,63.7,30.08,WSW,243,4.0,13.0,74,0.00,,,0.00,381.0,meteohub,2013-06-26 01:47:00,
2013-06-25 18:52:00,72.3,63.5,30.08,SW,223,6.0,13.0,74,0.00,,,0.00,320.0,meteohub,2013-06-26 01:52:00,
2013-06-25 18:57:00,72.1,63.3,30.08,WSW,246,5.0,13.0,74,0.00,,,0.00,352.0,meteohub,2013-06-26 01:57:00,
2013-06-25 19:02:00,72.1,63.3,30.08,West,271,6.0,10.0,74,0.00,,,0.00,104.0,meteohub,2013-06-26 02:02:00,
2013-06-25 19:07:00,71.1,62.8,30.08,West,277,4.0,10.0,75,0.00,,,0.00,86.0,meteohub,2013-06-26 02:07:00,
2013-06-25 19:12:00,70.3,62.4,30.08,SW,215,6.0,10.0,76,0.00,,,0.00,111.0,meteohub,2013-06-26 02:12:00,
2013-06-25 19:17:00,70.0,62.8,30.08,WSW,238,4.0,10.0,78,0.00,,,0.00,97.0,meteohub,2013-06-26 02:17:00,
2013-06-25 19:23:00,70.0,62.8,30.08,WSW,249,4.0,11.0,78,0.00,,,0.00,146.0,meteohub,2013-06-26 02:23:00,
2013-06-25 19:28:00,69.6,62.4,30.08,WSW,248,4.0,11.0,78,0.00,,,0.00,171.0,meteohub,2013-06-26 02:28:00,
2013-06-25 19:33:00,70.0,62.8,30.08,WSW,257,3.0,11.0,78,0.00,,,0.00,127.0,meteohub,2013-06-26 02:33:00,
2013-06-25 19:38:00,70.2,63.0,30.08,SW,229,7.0,10.0,78,0.00,,,0.00,70.0,meteohub,2013-06-26 02:38:00,
2013-06-25 19:43:00,69.6,62.4,30.08,WSW,242,4.0,8.0,78,0.00,,,0.00,62.0,meteohub,2013-06-26 02:43:00,
2013-06-25 19:48:00,69.3,62.4,30.08,SW,229,7.0,9.0,79,0.00,,,0.00,56.0,meteohub,2013-06-26 02:48:00,
2013-06-25 19:53:00,69.1,62.2,30.08,WSW,248,6.0,9.0,79,0.00,,,0.00,39.0,meteohub,2013-06-26 02:53:00,
2013-06-25 19:58:00,68.4,61.9,30.08,SW,229,5.0,9.0,80,0.00,,,0.00,26.0,meteohub,2013-06-26 02:58:00,
2013-06-25 20:03:00,67.8,61.7,30.08,WSW,244,3.0,8.0,81,0.00,,,0.00,28.0,meteohub,2013-06-26 03:03:00,
2013-06-25 20:06:00,67.6,61.5,30.08,WSW,237,7.0,8.0,81,0.00,,,0.00,21.0,meteohub,2013-06-26 03:06:00,
2013-06-25 20:11:00,67.3,61.5,30.08,WSW,252,4.0,9.0,82,0.00,,,0.00,11.0,meteohub,2013-06-26 03:11:00,
2013-06-25 20:16:00,66.7,61.3,30.08,WSW,246,6.0,9.0,83,0.00,,,0.00,7.0,meteohub,2013-06-26 03:16:00,
2013-06-25 20:21:00,66.4,61.3,30.08,West,261,5.0,10.0,84,0.00,,,0.00,5.0,meteohub,2013-06-26 03:21:00,
2013-06-25 20:26:00,66.0,61.3,30.08,SW,228,7.0,10.0,85,0.00,,,0.00,5.0,meteohub,2013-06-26 03:26:00,
2013-06-25 20:31:00,65.8,61.2,30.08,WSW,239,5.0,10.0,85,0.00,,,0.00,0.0,meteohub,2013-06-26 03:31:00,
2013-06-25 20:36:00,65.8,61.2,30.08,WSW,244,4.0,10.0,85,0.00,,,0.00,0.0,meteohub,2013-06-26 03:36:00,
2013-06-25 20:42:00,65.7,61.3,30.08,SW,232,4.0,9.0,86,0.00,,,0.00,0.0,meteohub,2013-06-26 03:42:00,
2013-06-25 20:47:00,65.5,61.2,30.08,SW,236,4.0,9.0,86,0.00,,,0.00,0.0,meteohub,2013-06-26 03:47:00,
2013-06-25 20:52:00,65.3,61.0,30.08,WSW,250,4.0,8.0,86,0.00,,,0.00,0.0,meteohub,2013-06-26 03:52:00,
2013-06-25 20:57:00,65.1,61.2,30.08,WSW,253,5.0,8.0,87,0.00,,,0.00,0.0,meteohub,2013-06-26 03:57:00,
2013-06-25 21:01:00,65.1,61.2,30.08,WSW,244,5.0,10.0,87,0.00,,,0.00,0.0,meteohub,2013-06-26 04:01:00,
2013-06-25 21:04:00,64.9,61.0,30.08,WSW,244,7.0,10.0,87,0.00,,,0.00,0.0,meteohub,2013-06-26 04:04:00,
2013-06-25 21:07:00,64.9,61.0,30.08,SW,232,6.0,12.0,87,0.00,,,0.00,0.0,meteohub,2013-06-26 04:07:00,
2013-06-25 21:12:00,64.9,61.0,30.08,WSW,254,4.0,12.0,87,0.00,,,0.00,0.0,meteohub,2013-06-26 04:12:00,
2013-06-25 21:17:00,64.9,61.0,30.08,WSW,252,5.0,12.0,87,0.00,,,0.00,0.0,meteohub,2013-06-26 04:17:00,
2013-06-25 21:22:00,64.9,61.0,30.09,WSW,254,2.0,11.0,87,0.00,,,0.00,0.0,meteohub,2013-06-26 04:22:00,
2013-06-25 21:27:00,64.9,61.0,30.09,SW,232,5.0,11.0,87,0.00,,,0.00,0.0,meteohub,2013-06-26 04:27:00,
2013-06-25 21:32:00,64.9,61.0,30.09,West,266,3.0,11.0,87,0.00,,,0.00,0.0,meteohub,2013-06-26 04:32:00,
2013-06-25 21:37:00,64.8,60.8,30.09,WSW,246,6.0,8.0,87,0.00,,,0.00,0.0,meteohub,2013-06-26 04:37:00,
2013-06-25 21:42:00,64.8,60.8,30.10,SW,218,1.0,8.0,87,0.00,,,0.00,0.0,meteohub,2013-06-26 04:42:00,
2013-06-25 21:47:00,64.8,61.2,30.10,WSW,246,4.0,8.0,88,0.00,,,0.00,0.0,meteohub,2013-06-26 04:47:00,
2013-06-25 21:52:00,64.6,61.0,30.10,WSW,237,4.0,8.0,88,0.00,,,0.00,0.0,meteohub,2013-06-26 04:52:00,
2013-06-25 21:57:00,64.6,61.0,30.10,WSW,257,2.0,8.0,88,0.00,,,0.00,0.0,meteohub,2013-06-26 04:57:00,
2013-06-25 22:02:00,64.6,61.0,30.10,SW,216,5.0,8.0,88,0.00,,,0.00,0.0,meteohub,2013-06-26 05:02:00,
2013-06-25 22:07:00,64.4,60.8,30.10,WSW,248,2.0,8.0,88,0.00,,,0.00,0.0,meteohub,2013-06-26 05:07:00,
2013-06-25 22:12:00,64.6,61.3,30.10,WSW,239,2.0,8.0,89,0.00,,,0.00,0.0,meteohub,2013-06-26 05:12:00,
2013-06-25 22:17:00,64.6,61.3,30.10,WSW,237,1.0,8.0,89,0.00,,,0.00,0.0,meteohub,2013-06-26 05:17:00,
2013-06-25 22:22:00,64.6,61.3,30.11,SW,233,0.0,6.0,89,0.00,,,0.00,0.0,meteohub,2013-06-26 05:22:00,
2013-06-25 22:27:00,64.6,61.3,30.10,WSW,257,6.0,6.0,89,0.00,,,0.00,0.0,meteohub,2013-06-26 05:27:00,
2013-06-25 22:32:00,64.6,61.3,30.10,WNW,284,6.0,7.0,89,0.00,,,0.00,0.0,meteohub,2013-06-26 05:32:00,
2013-06-25 22:37:00,64.6,61.3,30.10,SW,228,3.0,7.0,89,0.00,,,0.00,0.0,meteohub,2013-06-26 05:37:00,
2013-06-25 22:42:00,64.6,61.3,30.11,WSW,253,1.0,7.0,89,0.00,,,0.00,0.0,meteohub,2013-06-26 05:42:00,
2013-06-25 22:47:00,64.8,61.5,30.10,SW,232,5.0,7.0,89,0.00,,,0.00,0.0,meteohub,2013-06-26 05:47:00,
2013-06-25 22:52:00,64.8,61.5,30.11,SW,223,2.0,6.0,89,0.00,,,0.00,0.0,meteohub,2013-06-26 05:52:00,
2013-06-25 22:57:00,64.8,61.5,30.10,SW,233,5.0,6.0,89,0.00,,,0.00,0.0,meteohub,2013-06-26 05:57:00,
2013-06-25 23:02:00,64.8,61.2,30.10,West,266,3.0,5.0,88,0.00,,,0.00,0.0,meteohub,2013-06-26 06:02:00,
2013-06-25 23:07:00,64.8,61.2,30.10,West,261,1.0,5.0,88,0.00,,,0.00,0.0,meteohub,2013-06-26 06:07:00,
2013-06-25 23:12:00,64.8,61.2,30.10,SW,236,0.0,5.0,88,0.00,,,0.00,0.0,meteohub,2013-06-26 06:12:00,
2013-06-25 23:17:00,64.8,61.2,30.10,SW,236,0.0,5.0,88,0.00,,,0.00,0.0,meteohub,2013-06-26 06:17:00,
2013-06-25 23:22:00,64.8,61.2,30.10,SW,236,0.0,4.0,88,0.00,,,0.00,0.0,meteohub,2013-06-26 06:22:00,
2013-06-25 23:27:00,64.8,61.2,30.10,WSW,246,0.0,4.0,88,0.00,,,0.00,0.0,meteohub,2013-06-26 06:27:00,
2013-06-25 23:32:00,64.8,61.2,30.10,West,261,2.0,3.0,88,0.00,,,0.00,0.0,meteohub,2013-06-26 06:32:00,
2013-06-25 23:37:00,64.8,61.2,30.10,WSW,250,1.0,4.0,88,0.00,,,0.00,0.0,meteohub,2013-06-26 06:37:00,
2013-06-25 23:42:00,64.8,61.2,30.10,WSW,246,2.0,4.0,88,0.00,,,0.00,0.0,meteohub,2013-06-26 06:42:00,
2013-06-25 23:47:00,64.6,61.0,30.10,WSW,255,0.0,5.0,88,0.00,,,0.00,0.0,meteohub,2013-06-26 06:47:00,
2013-06-25 23:52:00,64.6,61.0,30.10,SW,219,1.0,5.0,88,0.00,,,0.00,0.0,meteohub,2013-06-26 06:52:00,
2013-06-25 23:57:00,64.6,61.0,30.10,WSW,257,0.0,5.0,88,0.00,,,0.00,0.0,meteohub,2013-06-26 06:57:00,